Mendip, United Kingdom
Current Conditions -  °F | °C
As of 6:50 AM on Sunday 21 Dec 2014 (Local Time) from EGGD Reporting Station
Light Rain Light Rain  
Wind Chill: 37°   Ceiling: 1100
Heat Index: 45°   Visibility: 5mi
Dew Point: 43°   Wind: 17mph
Humidity: 93%   Direction: 240°WSW
Pressure: 30.36"   Gusts: NA
Location:  51.24°N, 2.63°W
Report Text: EGGD 210650Z 24015KT 8000 -RA FEW002 BKN011 07/06 Q1028
Loading
Personal Weather Stations






























Interactive Weather Map New forecast layout! Learn more

10-Day Weather Forecast

Advertisements
Track Severe Weather on mobile